Ana Sayfa
METAR-TAF:

METAR-TAF

Havaalanları :

Biak, Endonezya

Enlem: 01-11S, Boylam: 136-07E, yükseklik: 11 m

Güncel hava durumu gözlemi

Rapor saat 03:00 UTC de 1 saat ve 23 dakika önce yapıldı.
Rüzgar doğudan 10 kt
Sıcaklık 29°C
Nem 79%
Basınç 1009 hPa
Görüş mesafesi 10 km veya daha fazla
1800 ft yükseklikte parçalı bulutlu

METAR: WABB 160300Z 09010KT 9999 SCT018 29/25 Q1009 NOSIG

Saat: 11:23 (04:23 UTC)

Tahmin

Rapor saat 23:00 UTC de 5 saat ve 23 dakika önce yapıldı.
Ayın 16'si saat 00 UTC'den ayın 17'si saat 06 UTC'ye kadar geçerli Tahmin
Rüzgar güneydan 8 kt
Görüş mesafesi 10 km veya daha fazla
1800 ft yükseklikte parçalı bulutlu
Geçici
ayın 16'si saat 02 UTC'den ayın 16'si saat 06 UTC'ye kadar
Görüş mesafesi: 6000 m
1700 ft yükseklikte az bulutlu, Kümülonimbus.
yağmur
Dönüşüyor
ayın 16'si saat 10 UTC'den ayın 16'si saat 12 UTC'ye kadar
Rüzgar kuzeydan kt

TAF: WABB 152300Z 1600/1706 17008KT 9999 SCT018 TEMPO 1602/1606 6000 RA FEW017CB BECMG 1610/1612 00000KT

4.000'den fazla havaalanı için hava durumu gözlemleri ve tahminleri (METAR ve TAF raporları).

Kullanılabilir istasyonlar harita üzerinde sarı ve kırmızı noktalarla gösterilir.

İstasyonun adını görmek için fareyi noktanın üzerinde gezdirin.

Sonrasında hava gözlem ve tahminlerini görmek için tıklayın.

Haritayı değiştirmek için: yaklaştırmak için siyah artı işaretli yeşil düğmeye ve uzaklaştırmak için de eksi işaretli düğmeye hızla tıklayın; bitişik haritalar için yeşil okları kullanın.


METAR-TAF: